This is the latest recevied weather packets stored in our database for station/object OK1FET-6. If no packets are shown the sender has not sent any weather packets the latest 10 day(s).
| Time | Temp. | Humidity | Pressure | Rain* | Wind** | Luminosity | Snow |
|---|---|---|---|---|---|---|---|
| 1788272298 | 36.11° C | 26% | 1020.1 hPa | 0 mm | - | - | - |
| 1788271700 | 40° C | 24% | 1020.2 hPa | 0 mm | - | - | - |
| 1788271101 | 40° C | 25% | 1020.3 hPa | 0 mm | - | - | - |
| 1788270504 | 40° C | 25% | 1020.3 hPa | 0 mm | - | - | - |
| 1788269905 | 38.89° C | 26% | 1020.4 hPa | 0 mm | - | - | - |
| 1788269307 | 40° C | 26% | 1020.5 hPa | 0 mm | - | - | - |
| 1788268708 | 40° C | 26% | 1020.6 hPa | 0 mm | - | - | - |
| 1788268110 | 39.44° C | 27% | 1020.6 hPa | 0 mm | - | - | - |
| 1788267512 | 35.56° C | 30% | 1020.7 hPa | 0 mm | - | - | - |
| 1788266315 | 33.89° C | 32% | 1020.8 hPa | 0 mm | - | - | - |
| 1788265717 | 32.22° C | 33% | 1020.8 hPa | 0 mm | - | - | - |
| 1788265119 | 29.44° C | 36% | 1020.8 hPa | 0 mm | - | - | - |
| 1788264521 | 30° C | 36% | 1020.8 hPa | 0 mm | - | - | - |
| 1788263921 | 30.56° C | 36% | 1020.8 hPa | 0 mm | - | - | - |
| 1788263323 | 31.11° C | 36% | 1020.9 hPa | 0 mm | - | - | - |
| 1788262724 | 32.22° C | 34% | 1021 hPa | 0 mm | - | - | - |
| 1788262126 | 33.33° C | 34% | 1021 hPa | 0 mm | - | - | - |
| 1788261528 | 31.11° C | 37% | 1021 hPa | 0 mm | - | - | - |
| 1788260929 | 30° C | 37% | 1020.9 hPa | 0 mm | - | - | - |
| 1788260330 | 31.67° C | 36% | 1021 hPa | 0 mm | - | - | - |
| 1788259732 | 31.67° C | 36% | 1021.1 hPa | 0 mm | - | - | - |
| 1788259134 | 30.56° C | 37% | 1021 hPa | 0 mm | - | - | - |
| 1788258535 | 28.89° C | 40% | 1021.1 hPa | 0 mm | - | - | - |
| 1788257937 | 29.44° C | 39% | 1021 hPa | 0 mm | - | - | - |
| 1788257339 | 29.44° C | 39% | 1021 hPa | 0 mm | - | - | - |
* Rain latest hour (hover to see other rain measurements)
** Current wind speed in m/s (hover to see current wind gust speed)